Terminal Aerodrome Forecast
Issued by NWS Sterling, VA

Home | Current Version | Previous Version | Text Only | Print | Product List | Glossary On
Versions: 1 2 3 4 5 6 7 8 9 10 11 12 13
000
FTUS41 KLWX 232300
TAFMRB
TAF
KMRB 232338Z 2400/2424 32014G22KT P6SM SKC
     FM240200 31012KT P6SM SKC
     FM240700 31008KT P6SM SKC
     FM241300 33012G20KT P6SM SCT250
     FM242300 01004KT P6SM SCT250=

USA.gov is the U.S. government's official web portal to all federal, state and local government web resources and services.